Time;durP1;ratioP1;P1;durP2;ratioP2;P2;SDS_P1;SDS_P2;PMS_P1;PMS_P2;Temp;Humidity;BMP_temperature;BMP_pressure;BME280_temperature;BME280_humidity;BME280_pressure;Samples;Min_cycle;Max_cycle;Signal;HPM_P1;HPM_P2
2021/05/13 00:01:36;;;;;;;3.40;1.27;;;14.50;74.80;;;;;;5011687;28;20026;-77
2021/05/13 00:04:01;;;;;;;2.97;1.10;;;14.50;74.80;;;;;;5012629;28;20097;-77
2021/05/13 00:06:27;;;;;;;2.25;1.17;;;14.50;74.90;;;;;;5012302;28;20018;-77
2021/05/13 00:08:56;;;;;;;1.13;1.00;;;14.50;75.00;;;;;;5011515;28;20022;-77
2021/05/13 00:11:29;;;;;;;3.20;1.02;;;14.50;75.00;;;;;;5011712;28;20343;-77
2021/05/13 00:13:54;;;;;;;2.33;1.30;;;14.40;75.00;;;;;;5011721;28;20048;-77
2021/05/13 00:16:22;;;;;;;2.35;1.30;;;14.40;75.10;;;;;;5011894;28;20018;-78
2021/05/13 00:18:48;;;;;;;2.95;1.30;;;14.40;75.10;;;;;;5026506;28;20018;-77
2021/05/13 00:21:13;;;;;;;2.65;1.40;;;14.40;75.20;;;;;;5011891;28;20030;-78
2021/05/13 00:23:39;;;;;;;3.60;1.60;;;14.40;75.30;;;;;;5012965;28;20343;-76
2021/05/13 00:26:04;;;;;;;4.55;1.20;;;14.30;75.30;;;;;;5014847;28;20018;-77
2021/05/13 00:28:30;;;;;;;3.75;1.40;;;14.30;75.40;;;;;;5016085;28;20109;-77
2021/05/13 00:30:56;;;;;;;2.83;1.25;;;14.30;75.40;;;;;;5014784;28;20029;-77
2021/05/13 00:33:21;;;;;;;4.22;1.23;;;14.30;75.50;;;;;;5014210;28;20025;-76
2021/05/13 00:35:47;;;;;;;3.08;1.38;;;14.30;75.60;;;;;;5014785;28;20022;-77
2021/05/13 00:38:13;;;;;;;2.58;1.10;;;14.20;75.60;;;;;;5014240;28;20010;-77
2021/05/13 00:40:38;;;;;;;1.38;1.00;;;14.20;75.70;;;;;;5014680;28;20021;-76
2021/05/13 00:43:04;;;;;;;5.82;1.23;;;14.20;75.80;;;;;;5015434;28;20026;-76
2021/05/13 00:45:30;;;;;;;2.60;1.25;;;14.20;75.90;;;;;;5015530;28;20025;-77
2021/05/13 00:50:25;;;;;;;3.30;1.50;;;14.20;75.90;;;;;;5015312;28;20163;-77
2021/05/13 00:52:51;;;;;;;2.05;1.17;;;14.10;76.00;;;;;;5014832;28;20488;-77
2021/05/13 00:55:18;;;;;;;2.10;1.30;;;14.10;76.10;;;;;;5015547;28;20022;-78
2021/05/13 00:57:50;;;;;;;2.03;1.10;;;14.10;76.20;;;;;;5014688;28;20049;-76
2021/05/13 01:00:43;;;;;;;2.40;1.50;;;14.10;76.20;;;;;;5015426;28;20132;-76
2021/05/13 01:03:04;;;;;;;3.92;1.45;;;14.10;76.30;;;;;;5013990;28;20026;-77
2021/05/13 01:05:31;;;;;;;3.30;1.20;;;14.10;76.40;;;;;;5030303;28;20369;-77
2021/05/13 01:07:58;;;;;;;2.08;1.05;;;14.00;76.50;;;;;;5014488;28;20443;-76
2021/05/13 01:10:25;;;;;;;3.03;1.17;;;14.00;76.70;;;;;;5014903;28;20025;-77
2021/05/13 01:12:52;;;;;;;3.42;1.40;;;14.00;76.80;;;;;;5014367;28;20366;-77
2021/05/13 01:15:32;;;;;;;4.28;1.27;;;14.00;76.80;;;;;;5014857;28;20033;-76
2021/05/13 01:18:06;;;;;;;2.83;1.38;;;13.90;76.80;;;;;;5014338;28;20014;-77
2021/05/13 01:20:32;;;;;;;3.67;1.38;;;13.90;77.40;;;;;;5013564;28;20032;-77
2021/05/13 01:22:59;;;;;;;1.58;1.13;;;13.90;76.80;;;;;;5014178;28;20476;-76
2021/05/13 01:25:26;;;;;;;3.50;1.42;;;13.90;76.90;;;;;;5014990;28;20032;-76
2021/05/13 01:28:00;;;;;;;1.50;1.30;;;13.90;76.90;;;;;;5014126;28;20029;-76
2021/05/13 01:30:29;;;;;;;2.20;1.23;;;13.90;77.10;;;;;;5013406;28;20394;-77
2021/05/13 01:32:58;;;;;;;2.25;1.50;;;13.90;77.20;;;;;;5013952;28;20050;-76
2021/05/13 01:35:24;;;;;;;1.98;1.23;;;13.80;77.20;;;;;;5014093;28;20037;-76
2021/05/13 01:38:09;;;;;;;4.65;1.58;;;13.80;77.20;;;;;;5013835;28;20018;-76
2021/05/13 01:40:36;;;;;;;2.47;1.42;;;13.80;77.30;;;;;;5014676;28;20042;-77
2021/05/13 01:43:03;;;;;;;2.60;1.23;;;13.80;77.40;;;;;;5012422;28;20080;-77
2021/05/13 01:45:28;;;;;;;2.85;1.48;;;13.80;77.40;;;;;;5014329;28;20026;-77
2021/05/13 01:48:01;;;;;;;4.40;1.73;;;13.80;77.50;;;;;;5013788;28;20048;-76
2021/05/13 01:50:29;;;;;;;3.17;1.55;;;13.80;77.50;;;;;;5014237;28;20021;-77
2021/05/13 01:52:54;;;;;;;3.60;1.35;;;13.70;77.60;;;;;;5013520;28;20021;-76
2021/05/13 01:55:20;;;;;;;2.45;1.33;;;13.70;77.60;;;;;;5012815;28;20026;-77
2021/05/13 01:57:46;;;;;;;5.15;2.05;;;13.70;77.70;;;;;;5012904;28;20018;-77
2021/05/13 02:00:12;;;;;;;3.22;1.40;;;13.70;77.80;;;;;;5012725;28;20028;-76
2021/05/13 02:02:37;;;;;;;4.60;1.80;;;13.60;77.90;;;;;;5013759;28;20078;-77
2021/05/13 02:05:03;;;;;;;4.10;1.75;;;13.60;78.00;;;;;;5013330;28;20234;-77
2021/05/13 02:07:29;;;;;;;3.30;1.40;;;13.60;78.00;;;;;;5013913;28;20021;-77
2021/05/13 02:09:55;;;;;;;2.88;1.75;;;13.60;78.10;;;;;;5013236;28;20028;-76
2021/05/13 02:12:20;;;;;;;3.72;1.70;;;13.60;78.20;;;;;;5014076;28;20025;-77
2021/05/13 02:14:46;;;;;;;2.03;1.42;;;13.60;78.30;;;;;;5012930;28;20474;-75
2021/05/13 02:17:11;;;;;;;3.53;1.58;;;13.50;78.30;;;;;;5013729;28;20029;-77
2021/05/13 02:19:37;;;;;;;3.83;1.65;;;13.50;78.40;;;;;;5013662;28;20025;-77
2021/05/13 02:22:03;;;;;;;4.63;1.73;;;13.50;78.40;;;;;;5027805;28;20107;-76
2021/05/13 02:24:28;;;;;;;2.92;1.52;;;13.50;78.50;;;;;;5012321;28;20030;-77
2021/05/13 02:26:54;;;;;;;3.53;1.55;;;13.50;78.60;;;;;;5027712;28;20022;-77
2021/05/13 02:29:19;;;;;;;4.13;1.85;;;13.50;78.70;;;;;;5028639;28;20463;-76
2021/05/13 02:31:45;;;;;;;2.40;1.60;;;13.50;78.80;;;;;;5013077;28;20427;-77
2021/05/13 02:34:11;;;;;;;5.53;2.00;;;13.50;78.80;;;;;;5013104;28;20049;-76
2021/05/13 02:36:37;;;;;;;4.07;1.75;;;13.50;78.80;;;;;;5013298;28;20026;-76
2021/05/13 02:39:03;;;;;;;3.28;1.70;;;13.40;78.80;;;;;;5012703;28;20017;-76
2021/05/13 02:41:29;;;;;;;3.85;2.00;;;13.40;78.90;;;;;;5013523;28;20512;-77
2021/05/13 02:43:54;;;;;;;2.55;1.67;;;13.40;78.90;;;;;;5012584;28;20021;-76
2021/05/13 02:46:20;;;;;;;5.38;1.75;;;13.40;78.90;;;;;;5027739;28;20482;-77
2021/05/13 02:48:45;;;;;;;5.65;2.10;;;13.40;79.00;;;;;;5027576;28;20014;-77
2021/05/13 02:51:11;;;;;;;3.75;1.95;;;13.30;79.00;;;;;;5012490;28;20034;-76
2021/05/13 02:53:37;;;;;;;3.10;1.73;;;13.30;79.00;;;;;;5028389;28;20358;-77
2021/05/13 02:56:03;;;;;;;3.45;2.28;;;13.30;79.10;;;;;;5012211;28;20072;-77
2021/05/13 02:58:29;;;;;;;5.57;2.10;;;13.40;79.20;;;;;;5028433;28;20025;-77
2021/05/13 03:03:33;;;;;;;2.35;1.73;;;13.30;79.30;;;;;;5013023;28;20120;-77
2021/05/13 03:05:58;;;;;;;4.55;1.85;;;13.30;79.40;;;;;;5012636;28;20120;-77
2021/05/13 03:08:24;;;;;;;3.60;1.88;;;13.30;79.40;;;;;;5028140;28;20109;-76
2021/05/13 03:10:50;;;;;;;4.22;1.90;;;13.30;79.50;;;;;;5012345;28;20042;-77
2021/05/13 03:13:22;;;;;;;3.30;1.85;;;13.30;79.60;;;;;;5012888;28;20022;-76
2021/05/13 03:15:49;;;;;;;4.60;1.90;;;13.30;79.60;;;;;;5012819;28;20026;-77
2021/05/13 03:18:15;;;;;;;3.03;1.90;;;13.30;79.70;;;;;;5013005;28;20022;-77
2021/05/13 03:20:44;;;;;;;5.95;2.00;;;13.20;79.70;;;;;;5012927;28;20025;-76
2021/05/13 03:23:12;;;;;;;2.25;1.40;;;13.30;79.70;;;;;;5012340;28;20033;-76
2021/05/13 03:25:39;;;;;;;4.63;2.17;;;13.20;79.70;;;;;;5012612;28;20053;-77
2021/05/13 03:28:09;;;;;;;2.90;1.60;;;13.20;79.80;;;;;;5011955;28;20018;-76
2021/05/13 03:30:43;;;;;;;3.38;2.20;;;13.20;79.80;;;;;;5012457;28;20029;-77
2021/05/13 03:33:10;;;;;;;5.78;2.13;;;13.20;79.90;;;;;;5011625;28;20018;-77
2021/05/13 03:35:36;;;;;;;5.45;1.80;;;13.20;79.90;;;;;;5011126;28;20462;-76
2021/05/13 03:38:03;;;;;;;3.58;1.73;;;13.20;80.00;;;;;;5011781;28;20080;-76
2021/05/13 03:40:30;;;;;;;6.45;2.15;;;13.10;80.10;;;;;;5011032;28;20054;-76
2021/05/13 03:42:57;;;;;;;4.72;2.35;;;13.10;80.10;;;;;;5011709;28;20022;-76
2021/05/13 03:45:24;;;;;;;4.55;2.15;;;13.10;80.10;;;;;;5010906;28;20029;-77
2021/05/13 03:47:49;;;;;;;6.28;2.75;;;13.10;80.10;;;;;;5011041;28;20358;-77
2021/05/13 03:50:15;;;;;;;3.00;1.88;;;13.10;80.10;;;;;;5011320;28;20492;-76
2021/05/13 03:52:42;;;;;;;3.08;2.28;;;13.10;80.10;;;;;;5010984;28;20064;-76
2021/05/13 03:55:08;;;;;;;4.53;2.33;;;13.10;80.10;;;;;;5011639;28;20022;-76
2021/05/13 03:57:34;;;;;;;4.45;2.90;;;13.10;80.20;;;;;;5012310;28;20068;-76
2021/05/13 04:00:05;;;;;;;4.70;2.45;;;13.10;80.30;;;;;;5014158;28;20018;-77
2021/05/13 04:02:34;;;;;;;3.67;2.33;;;13.10;80.30;;;;;;5016428;28;20064;-76
2021/05/13 04:05:01;;;;;;;3.80;2.28;;;13.10;80.30;;;;;;5015297;28;20347;-76
2021/05/13 04:07:35;;;;;;;3.72;2.08;;;13.10;80.40;;;;;;5016216;28;20101;-77
2021/05/13 04:10:08;;;;;;;7.47;2.28;;;13.00;80.30;;;;;;5014185;28;20030;-77
2021/05/13 04:12:38;;;;;;;4.18;2.38;;;13.10;80.40;;;;;;5016334;28;20018;-77
2021/05/13 04:15:09;;;;;;;5.10;2.50;;;13.10;80.50;;;;;;5015434;28;20018;-77
2021/05/13 04:17:35;;;;;;;4.65;2.45;;;13.00;80.40;;;;;;5015985;28;20418;-76
2021/05/13 04:20:01;;;;;;;3.60;2.47;;;13.00;81.00;;;;;;5015253;28;20022;-76
2021/05/13 04:22:27;;;;;;;5.30;2.63;;;13.00;80.40;;;;;;5016219;28;20343;-77
2021/05/13 04:24:52;;;;;;;4.28;2.58;;;13.00;80.50;;;;;;5015460;28;20412;-76
2021/05/13 04:27:18;;;;;;;7.43;2.85;;;13.00;80.50;;;;;;5015082;28;20414;-77
2021/05/13 04:29:44;;;;;;;6.43;2.78;;;13.00;80.60;;;;;;5026544;28;20018;-77
2021/05/13 04:32:09;;;;;;;5.53;2.67;;;13.00;80.60;;;;;;5014897;28;20041;-77
2021/05/13 04:34:35;;;;;;;3.90;2.70;;;13.00;80.60;;;;;;5015539;28;20046;-77
2021/05/13 04:37:00;;;;;;;4.22;2.70;;;13.00;80.70;;;;;;5014935;28;20351;-76
2021/05/13 04:39:26;;;;;;;5.88;3.00;;;13.00;80.70;;;;;;5015521;28;20018;-76
2021/05/13 04:41:52;;;;;;;5.88;3.20;;;13.00;80.70;;;;;;5015219;28;20132;-77
2021/05/13 04:44:17;;;;;;;5.30;3.30;;;13.00;80.70;;;;;;5017671;28;20017;-76
2021/05/13 04:46:44;;;;;;;6.05;3.20;;;13.10;80.80;;;;;;5034254;28;20047;-77
2021/05/13 04:51:36;;;;;;;4.72;2.90;;;13.00;80.90;;;;;;5034566;28;20037;-77
2021/05/13 04:54:03;;;;;;;5.57;2.75;;;13.00;81.00;;;;;;5034229;28;20025;-77
2021/05/13 04:56:29;;;;;;;9.32;3.30;;;13.10;81.10;;;;;;5034991;28;20024;-76
2021/05/13 04:58:55;;;;;;;6.97;3.17;;;13.10;81.10;;;;;;5034945;28;20017;-77
2021/05/13 05:01:21;;;;;;;5.82;3.13;;;13.10;81.20;;;;;;5023209;28;20037;-77
2021/05/13 05:03:47;;;;;;;7.15;3.95;;;13.10;81.20;;;;;;5015081;28;20021;-76
2021/05/13 05:06:14;;;;;;;5.78;3.38;;;13.10;81.20;;;;;;5014442;28;20093;-76
2021/05/13 05:08:41;;;;;;;6.38;3.70;;;13.10;81.20;;;;;;5013826;28;20430;-77
2021/05/13 05:11:07;;;;;;;5.10;3.25;;;13.10;81.30;;;;;;5012901;28;20101;-77
2021/05/13 05:13:33;;;;;;;6.20;3.13;;;13.10;81.30;;;;;;5014866;28;20100;-77
2021/05/13 05:15:59;;;;;;;5.65;3.10;;;13.20;81.40;;;;;;5014154;28;20089;-81
2021/05/13 05:18:25;;;;;;;5.75;3.50;;;13.20;81.40;;;;;;5011890;28;20154;-79
2021/05/13 05:20:52;;;;;;;5.90;3.50;;;13.20;81.50;;;;;;5010959;28;20156;-81
2021/05/13 05:23:19;;;;;;;6.88;4.00;;;13.20;81.60;;;;;;5012174;28;20022;-76
2021/05/13 05:25:45;;;;;;;7.55;3.47;;;13.20;81.60;;;;;;5012689;28;20018;-77
2021/05/13 05:28:11;;;;;;;8.80;4.03;;;13.20;81.70;;;;;;5010505;28;20167;-77
2021/05/13 05:30:38;;;;;;;6.55;3.85;;;13.30;81.80;;;;;;5010648;28;20026;-77
2021/05/13 05:33:05;;;;;;;10.25;3.83;;;13.30;81.90;;;;;;5010490;28;20013;-78
2021/05/13 05:35:32;;;;;;;9.88;4.55;;;13.30;82.00;;;;;;5012366;28;20045;-78
2021/05/13 05:37:58;;;;;;;8.35;5.05;;;13.30;82.00;;;;;;5010979;28;20169;-78
2021/05/13 05:40:25;;;;;;;8.32;4.25;;;13.30;82.10;;;;;;5010318;28;20029;-77
2021/05/13 05:42:51;;;;;;;7.15;4.53;;;13.30;82.20;;;;;;5017014;28;20032;-79
2021/05/13 05:45:20;;;;;;;9.05;4.30;;;13.40;82.20;;;;;;5026750;28;20029;-78
2021/05/13 05:47:46;;;;;;;8.52;5.07;;;13.40;82.30;;;;;;5021795;28;20438;-77
2021/05/13 05:50:12;;;;;;;7.53;4.75;;;13.40;82.40;;;;;;5029849;28;20033;-78
2021/05/13 05:52:38;;;;;;;8.38;5.00;;;13.40;82.40;;;;;;5032134;28;20025;-78
2021/05/13 05:55:06;;;;;;;9.05;5.13;;;13.40;82.40;;;;;;5029718;28;20017;-77
2021/05/13 05:57:32;;;;;;;9.45;4.93;;;13.50;82.60;;;;;;5033522;28;20026;-76
2021/05/13 05:59:58;;;;;;;11.02;5.20;;;13.50;82.60;;;;;;5033813;28;20018;-75
2021/05/13 06:02:25;;;;;;;11.43;5.22;;;13.50;82.60;;;;;;5031825;28;20126;-76
2021/05/13 06:04:51;;;;;;;9.70;4.60;;;13.60;82.70;;;;;;5033539;28;20440;-76
2021/05/13 06:07:17;;;;;;;12.43;6.32;;;13.50;82.70;;;;;;5033021;28;20017;-74
2021/05/13 06:09:43;;;;;;;10.40;5.68;;;13.60;82.80;;;;;;5033627;28;20053;-75
2021/05/13 06:12:09;;;;;;;9.13;5.25;;;13.60;82.90;;;;;;5031565;28;20152;-76
2021/05/13 06:14:35;;;;;;;9.63;4.78;;;13.60;82.90;;;;;;5033567;28;20075;-75
2021/05/13 06:17:01;;;;;;;10.48;5.78;;;13.60;83.50;;;;;;5033243;28;20102;-75
2021/05/13 06:19:27;;;;;;;11.32;5.60;;;13.60;83.00;;;;;;5032842;28;20075;-76
2021/05/13 06:21:52;;;;;;;10.73;5.97;;;13.70;83.10;;;;;;5033125;28;20025;-76
2021/05/13 06:24:18;;;;;;;12.57;6.18;;;13.70;83.10;;;;;;5032483;28;20017;-75
2021/05/13 06:26:58;;;;;;;9.43;5.88;;;13.70;83.10;;;;;;5031963;28;20017;-74
2021/05/13 06:29:24;;;;;;;8.52;5.32;;;13.80;83.20;;;;;;5032676;28;20024;-75
2021/05/13 06:31:49;;;;;;;10.40;5.72;;;13.80;83.00;;;;;;5031857;28;20030;-75
2021/05/13 06:34:16;;;;;;;12.45;5.68;;;13.80;83.10;;;;;;5031051;28;20484;-75
2021/05/13 06:36:41;;;;;;;10.35;6.43;;;13.80;83.10;;;;;;5033166;28;20029;-75
2021/05/13 06:39:08;;;;;;;10.13;5.60;;;13.80;83.10;;;;;;5032821;28;20021;-75
2021/05/13 06:41:34;;;;;;;11.82;6.70;;;13.90;83.10;;;;;;5032943;28;20105;-75
2021/05/13 06:44:00;;;;;;;10.68;6.60;;;13.90;83.20;;;;;;5033085;28;20026;-76
2021/05/13 06:46:26;;;;;;;10.85;5.93;;;13.90;83.10;;;;;;5031053;28;20086;-75
2021/05/13 06:48:52;;;;;;;13.75;6.97;;;14.00;83.10;;;;;;5032723;28;20500;-75
2021/05/13 06:51:21;;;;;;;13.50;6.38;;;14.00;83.10;;;;;;5032265;28;20044;-75
2021/05/13 06:53:47;;;;;;;14.35;7.53;;;14.10;83.20;;;;;;5032894;28;20512;-76
2021/05/13 06:56:14;;;;;;;13.98;6.55;;;14.10;83.10;;;;;;5032141;28;20148;-75
2021/05/13 06:58:40;;;;;;;12.80;7.47;;;14.10;83.20;;;;;;5032660;28;20028;-76
2021/05/13 07:01:05;;;;;;;11.48;7.18;;;14.20;83.20;;;;;;5032908;28;20026;-75
2021/05/13 07:03:32;;;;;;;12.07;7.55;;;14.20;83.10;;;;;;5032063;28;20063;-75
2021/05/13 07:05:58;;;;;;;10.80;6.97;;;14.20;83.20;;;;;;5032315;28;20032;-75
2021/05/13 07:08:24;;;;;;;14.20;7.80;;;14.20;83.10;;;;;;5031856;28;20022;-75
2021/05/13 07:10:49;;;;;;;11.55;6.90;;;14.30;83.10;;;;;;5032364;28;20037;-75
2021/05/13 07:13:15;;;;;;;11.30;6.97;;;14.30;83.10;;;;;;5031876;28;20017;-75
2021/05/13 07:15:41;;;;;;;10.55;7.25;;;14.30;83.10;;;;;;5032565;28;20022;-75
2021/05/13 07:18:16;;;;;;;12.98;7.55;;;14.40;83.10;;;;;;5032425;28;20410;-74
2021/05/13 07:20:43;;;;;;;11.75;7.03;;;14.40;83.20;;;;;;5031044;28;20381;-76
2021/05/13 07:23:10;;;;;;;14.93;7.55;;;14.40;83.10;;;;;;5031716;28;20466;-72
2021/05/13 07:25:36;;;;;;;13.10;7.45;;;14.40;83.10;;;;;;5031939;28;20025;-76
2021/05/13 07:28:03;;;;;;;13.05;7.20;;;14.40;83.10;;;;;;5032038;28;20021;-75
2021/05/13 07:30:29;;;;;;;13.10;8.35;;;14.40;83.20;;;;;;5031280;28;20072;-75
2021/05/13 07:32:55;;;;;;;10.73;7.22;;;14.50;83.20;;;;;;5031348;28;20052;-75
2021/05/13 07:35:21;;;;;;;13.45;8.15;;;14.50;83.20;;;;;;5031601;28;20090;-76
2021/05/13 07:37:47;;;;;;;14.48;8.38;;;14.50;83.10;;;;;;5032132;28;20009;-75
2021/05/13 07:40:15;;;;;;;15.20;8.45;;;14.50;83.00;;;;;;5030081;28;20032;-75
2021/05/13 07:42:41;;;;;;;14.65;8.85;;;14.50;83.00;;;;;;5032052;28;20017;-75
2021/05/13 07:45:08;;;;;;;16.77;8.32;;;14.50;82.80;;;;;;5032035;28;20017;-74
2021/05/13 07:47:37;;;;;;;14.90;8.20;;;14.60;82.90;;;;;;5031329;28;20009;-75
2021/05/13 07:50:08;;;;;;;11.75;7.25;;;14.60;83.50;;;;;;5032132;28;20017;-75
2021/05/13 07:52:34;;;;;;;13.13;7.25;;;14.60;82.70;;;;;;5031370;28;20045;-75
2021/05/13 07:55:01;;;;;;;14.48;9.10;;;14.60;82.60;;;;;;5031945;28;20025;-76
2021/05/13 07:57:27;;;;;;;15.90;9.95;;;14.60;82.70;;;;;;5029755;28;20032;-75
2021/05/13 07:59:53;;;;;;;17.15;9.30;;;14.70;82.60;;;;;;5031721;28;20104;-75
2021/05/13 08:02:19;;;;;;;19.45;10.48;;;14.70;82.60;;;;;;5031245;28;20100;-75
2021/05/13 08:04:44;;;;;;;19.88;9.90;;;14.70;82.30;;;;;;5030531;28;20053;-75
2021/05/13 08:07:10;;;;;;;18.27;10.48;;;14.70;82.10;;;;;;5030616;28;20183;-76
2021/05/13 08:09:36;;;;;;;16.40;9.48;;;14.70;82.00;;;;;;5031296;28;20024;-74
2021/05/13 08:12:01;;;;;;;15.20;9.00;;;14.70;81.80;;;;;;5031772;28;20029;-75
2021/05/13 08:14:27;;;;;;;17.35;10.05;;;14.80;81.60;;;;;;5031354;28;20025;-75
2021/05/13 08:16:53;;;;;;;14.07;9.20;;;14.80;81.50;;;;;;5031481;28;20061;-76
2021/05/13 08:19:19;;;;;;;18.27;9.77;;;14.90;81.30;;;;;;5031154;28;20032;-75
2021/05/13 08:21:44;;;;;;;18.13;9.55;;;15.00;81.20;;;;;;5030321;28;20452;-75
2021/05/13 08:24:10;;;;;;;17.25;9.63;;;15.00;81.10;;;;;;5031677;28;20493;-75
2021/05/13 08:26:36;;;;;;;17.38;10.27;;;15.00;80.80;;;;;;5031058;28;20064;-75
2021/05/13 08:29:01;;;;;;;18.92;11.30;;;15.10;80.80;;;;;;5031615;28;20056;-75
2021/05/13 08:31:27;;;;;;;17.38;10.52;;;15.10;80.60;;;;;;5030861;28;20030;-75
2021/05/13 08:33:53;;;;;;;16.65;9.60;;;15.20;80.30;;;;;;5029938;28;20093;-75
2021/05/13 08:36:19;;;;;;;19.65;11.50;;;15.20;79.90;;;;;;5030838;28;20513;-75
2021/05/13 08:38:44;;;;;;;20.55;12.63;;;15.30;79.80;;;;;;5031178;28;20061;-75
2021/05/13 08:41:11;;;;;;;21.42;12.05;;;15.30;79.40;;;;;;5031462;28;20029;-75
2021/05/13 08:43:36;;;;;;;20.02;12.07;;;15.40;79.30;;;;;;5030550;28;20096;-75
2021/05/13 08:46:03;;;;;;;15.73;9.75;;;15.40;79.10;;;;;;5035101;28;20048;-74
2021/05/13 08:48:29;;;;;;;17.75;10.90;;;15.50;78.70;;;;;;5034210;28;20442;-74
2021/05/13 08:50:59;;;;;;;20.50;11.95;;;15.50;78.30;;;;;;5035053;28;20116;-75
2021/05/13 08:53:25;;;;;;;19.53;11.63;;;15.50;78.40;;;;;;5034534;28;20017;-75
2021/05/13 08:55:51;;;;;;;20.55;11.65;;;15.50;78.10;;;;;;5034794;28;20480;-75
2021/05/13 08:58:17;;;;;;;17.60;9.90;;;15.60;78.00;;;;;;5034257;28;20013;-75
2021/05/13 09:00:56;;;;;;;23.27;13.55;;;15.60;77.80;;;;;;5034682;28;20017;-75
2021/05/13 09:03:36;;;;;;;19.13;11.23;;;15.70;77.40;;;;;;5032962;28;20116;-75
2021/05/13 09:06:06;;;;;;;21.10;11.32;;;15.70;77.30;;;;;;5034656;28;20507;-75
2021/05/13 09:08:33;;;;;;;16.60;10.18;;;15.80;76.70;;;;;;5034203;28;20022;-75
2021/05/13 09:11:13;;;;;;;19.90;10.35;;;15.80;76.50;;;;;;5033378;28;20036;-75
2021/05/13 09:13:39;;;;;;;18.13;10.13;;;15.90;76.40;;;;;;5034152;28;20013;-75
2021/05/13 09:16:26;;;;;;;23.55;12.75;;;15.90;76.20;;;;;;5034728;28;20021;-75
2021/05/13 09:18:53;;;;;;;16.98;11.10;;;16.00;76.00;;;;;;5034497;28;20053;-75
2021/05/13 09:21:19;;;;;;;16.67;8.95;;;16.00;75.90;;;;;;5034044;28;20104;-74
2021/05/13 09:23:44;;;;;;;18.33;9.65;;;16.10;75.80;;;;;;5034263;28;20172;-75
2021/05/13 09:26:16;;;;;;;15.43;9.27;;;16.20;75.30;;;;;;5034382;28;20021;-75
2021/05/13 09:28:48;;;;;;;14.73;8.68;;;16.20;75.10;;;;;;5033884;28;20044;-75
2021/05/13 09:31:35;;;;;;;15.65;10.23;;;16.30;74.80;;;;;;5033742;28;20075;-75
2021/05/13 09:34:06;;;;;;;18.15;10.52;;;16.40;74.60;;;;;;5033867;28;20025;-76
2021/05/13 09:36:32;;;;;;;12.18;8.15;;;16.40;74.30;;;;;;5033948;28;20041;-75
2021/05/13 09:38:57;;;;;;;13.15;7.57;;;16.40;74.10;;;;;;5032631;28;20029;-75
2021/05/13 09:41:31;;;;;;;14.70;8.68;;;16.50;73.30;;;;;;5032365;28;20475;-75
2021/05/13 09:43:57;;;;;;;17.30;9.65;;;16.60;73.00;;;;;;5034109;28;20079;-75
2021/05/13 09:46:37;;;;;;;15.05;8.63;;;16.60;72.60;;;;;;5033374;28;20071;-75
2021/05/13 09:49:04;;;;;;;13.30;8.05;;;16.70;72.30;;;;;;5034253;28;20013;-74
2021/05/13 09:51:37;;;;;;;10.30;6.22;;;16.70;72.10;;;;;;5033369;28;20037;-75
2021/05/13 09:54:17;;;;;;;11.60;5.75;;;16.80;71.50;;;;;;5032752;28;20013;-75
2021/05/13 09:56:54;;;;;;;11.48;5.68;;;16.90;70.30;;;;;;5032797;28;20025;-75
2021/05/13 09:59:25;;;;;;;11.25;6.07;;;17.00;68.80;;;;;;5032502;28;20009;-75
2021/05/13 10:01:52;;;;;;;12.05;6.57;;;17.10;67.60;;;;;;5033869;28;20056;-75
2021/05/13 10:04:18;;;;;;;19.45;9.15;;;17.10;67.70;;;;;;5033686;28;20050;-75
2021/05/13 10:06:44;;;;;;;15.80;7.20;;;17.20;67.80;;;;;;5031989;28;20013;-74
2021/05/13 10:09:14;;;;;;;9.57;5.90;;;17.30;67.70;;;;;;5033996;28;20100;-75
2021/05/13 10:11:43;;;;;;;12.25;7.30;;;17.40;67.50;;;;;;5033392;28;20036;-75
2021/05/13 10:14:09;;;;;;;9.80;6.68;;;17.40;67.40;;;;;;5034176;28;20013;-75
2021/05/13 10:16:35;;;;;;;10.07;5.75;;;17.50;67.00;;;;;;5032992;28;20021;-75
2021/05/13 10:19:08;;;;;;;8.48;5.18;;;17.70;66.70;;;;;;5032489;28;20533;-76
2021/05/13 10:21:36;;;;;;;11.07;5.40;;;17.80;65.80;;;;;;5031725;28;20100;-76
2021/05/13 10:24:03;;;;;;;8.35;4.60;;;17.90;65.60;;;;;;5032135;28;20370;-75
2021/05/13 10:26:40;;;;;;;7.88;3.90;;;18.00;65.30;;;;;;5032523;28;20020;-74
2021/05/13 10:29:21;;;;;;;8.82;3.08;;;18.10;64.80;;;;;;5033420;28;20056;-75
2021/05/13 10:32:00;;;;;;;5.50;2.47;;;18.20;64.50;;;;;;5033208;28;20025;-75
2021/05/13 10:34:40;;;;;;;5.88;2.03;;;18.20;64.10;;;;;;5032520;28;20059;-74
2021/05/13 10:37:18;;;;;;;6.57;2.90;;;18.30;63.10;;;;;;5033169;28;20060;-75
2021/05/13 10:40:12;;;;;;;6.15;3.25;;;18.30;62.60;;;;;;5032447;28;20040;-75
2021/05/13 10:42:39;;;;;;;4.28;2.30;;;18.30;61.70;;;;;;5032451;28;20014;-74
2021/05/13 10:45:23;;;;;;;9.30;2.47;;;18.30;61.70;;;;;;5032808;28;20453;-75
2021/05/13 10:48:27;;;;;;;6.97;3.38;;;18.40;60.70;;;;;;5032968;28;20017;-76
2021/05/13 10:51:02;;;;;;;4.38;2.65;;;18.50;60.80;;;;;;5032814;28;20025;-76
2021/05/13 10:53:34;;;;;;;3.95;2.42;;;18.50;60.80;;;;;;5032068;28;20417;-76
2021/05/13 10:56:23;;;;;;;2.85;1.75;;;18.60;60.50;;;;;;5033025;28;20013;-75
2021/05/13 10:59:10;;;;;;;5.10;2.50;;;18.60;59.60;;;;;;5032136;28;20048;-75
2021/05/13 11:01:42;;;;;;;6.68;2.80;;;18.70;59.20;;;;;;5031801;28;20534;-75
2021/05/13 11:04:23;;;;;;;4.20;2.75;;;18.70;59.00;;;;;;5031616;28;20018;-75
2021/05/13 11:07:14;;;;;;;6.57;3.22;;;18.90;58.40;;;;;;5032237;28;20014;-75
2021/05/13 11:12:19;;;;;;;6.50;3.72;;;19.00;58.90;;;;;;5032394;28;20034;-75
2021/05/13 11:17:46;;;;;;;6.40;4.20;;;19.40;58.70;;;;;;5032431;28;20026;-75
2021/05/13 11:20:18;;;;;;;6.93;3.75;;;19.60;58.40;;;;;;5031071;28;20028;-75
2021/05/13 11:23:24;;;;;;;7.97;4.50;;;19.80;58.40;;;;;;5030407;28;20454;-75
2021/05/13 11:26:05;;;;;;;9.63;4.35;;;20.00;57.60;;;;;;5035148;28;20143;-75
2021/05/13 11:28:43;;;;;;;5.68;3.53;;;20.20;57.30;;;;;;5032005;28;20106;-75
2021/05/13 11:31:22;;;;;;;5.18;3.08;;;20.40;57.00;;;;;;5032205;28;20075;-75
2021/05/13 11:33:52;;;;;;;6.22;3.47;;;20.60;56.60;;;;;;5030153;28;20026;-75
2021/05/13 11:36:30;;;;;;;5.95;3.28;;;20.80;56.30;;;;;;5032288;28;20100;-75
2021/05/13 11:39:01;;;;;;;4.15;2.53;;;20.80;55.10;;;;;;5032197;28;20100;-75
2021/05/13 11:41:27;;;;;;;6.95;3.72;;;20.90;53.60;;;;;;5032272;28;20091;-75
2021/05/13 11:43:53;;;;;;;4.70;2.80;;;20.90;53.10;;;;;;5031784;28;20366;-75
2021/05/13 11:46:24;;;;;;;6.70;3.22;;;21.00;53.30;;;;;;5031600;28;20068;-75
2021/05/13 11:48:51;;;;;;;7.88;4.00;;;21.20;52.40;;;;;;5030051;28;20517;-75
2021/05/13 11:51:30;;;;;;;8.15;4.20;;;21.30;52.80;;;;;;5032015;28;20103;-75
2021/05/13 11:53:58;;;;;;;9.25;5.03;;;21.50;53.10;;;;;;5030302;28;20112;-74
2021/05/13 11:56:26;;;;;;;5.75;3.25;;;21.70;53.50;;;;;;5031944;28;20025;-75
2021/05/13 11:58:57;;;;;;;6.65;3.35;;;21.80;52.70;;;;;;5031205;28;20032;-75
2021/05/13 12:01:36;;;;;;;5.03;2.88;;;21.90;52.70;;;;;;5030664;28;20017;-75
2021/05/13 12:04:05;;;;;;;5.47;2.53;;;22.10;52.40;;;;;;5030800;28;20025;-75
2021/05/13 12:06:54;;;;;;;4.50;3.25;;;22.30;50.90;;;;;;5030743;28;20069;-76
2021/05/13 12:09:21;;;;;;;3.85;2.90;;;22.50;51.20;;;;;;5031827;28;20017;-75
2021/05/13 12:11:50;;;;;;;6.22;3.13;;;22.60;50.70;;;;;;5030788;28;20022;-75
2021/05/13 12:14:23;;;;;;;5.70;2.80;;;22.60;50.30;;;;;;5031745;28;20109;-75
2021/05/13 12:17:03;;;;;;;7.03;3.53;;;22.70;50.90;;;;;;5031152;28;20056;-75
2021/05/13 12:19:32;;;;;;;7.40;3.92;;;22.70;50.20;;;;;;5048120;28;20018;-75
2021/05/13 12:22:00;;;;;;;6.65;3.38;;;22.60;49.50;;;;;;5035385;28;20029;-75
2021/05/13 12:24:31;;;;;;;5.88;3.10;;;22.50;49.30;;;;;;5035456;28;20018;-75
2021/05/13 12:26:57;;;;;;;;;;;22.50;49.60;;;;;;5034348;28;20014;-73
2021/05/13 12:29:24;;;;;;;3.90;2.47;;;22.50;49.80;;;;;;5035656;28;19931;-75
2021/05/13 12:31:50;;;;;;;5.45;2.85;;;22.70;50.00;;;;;;5034896;28;20036;-76
2021/05/13 12:34:36;;;;;;;5.28;3.03;;;22.80;49.40;;;;;;5035409;28;20009;-75
2021/05/13 12:37:03;;;;;;;5.25;2.83;;;22.90;49.80;;;;;;5035434;28;20072;-75
2021/05/13 12:39:34;;;;;;;5.35;3.45;;;22.70;49.00;;;;;;5034033;28;20021;-76
2021/05/13 12:42:00;;;;;;;6.35;3.20;;;22.70;49.20;;;;;;5034357;28;20048;-75
2021/05/13 12:44:33;;;;;;;6.45;3.33;;;22.80;49.30;;;;;;5035250;28;20452;-74
2021/05/13 12:47:01;;;;;;;4.95;3.17;;;22.80;48.80;;;;;;5035218;28;20021;-76
2021/05/13 12:49:29;;;;;;;5.88;3.15;;;22.90;48.80;;;;;;5035212;28;20018;-74
2021/05/13 12:52:15;;;;;;;6.25;3.30;;;23.00;48.80;;;;;;5034118;28;20021;-75
2021/05/13 12:54:41;;;;;;;3.85;2.88;;;23.10;48.50;;;;;;5034387;28;20472;-75
2021/05/13 12:57:18;;;;;;;6.53;3.00;;;23.00;48.90;;;;;;5034759;28;20078;-76
2021/05/13 12:59:54;;;;;;;5.15;2.90;;;22.90;49.20;;;;;;5034459;28;20044;-74
2021/05/13 13:02:22;;;;;;;5.18;3.15;;;22.80;49.20;;;;;;5035075;28;20473;-75
2021/05/13 13:04:54;;;;;;;7.00;3.60;;;22.80;48.60;;;;;;5034410;28;20410;-74